フィレンツェ の空港の天気 - METARとTAF

フィレンツェ・ペレトラ空港 ( LIRQ / FLR ) - イタリア フィレンツェ
飛行場実況気象(Metar)
観測時間06/03 08:20 CEST (06/03 06:20 UTC)
風向・風速不定 2m/s
視程10km以上
天気現象
少しの雲 雲底高度 610m
全天の8割程度の雲 雲底高度 910m
気温19℃
湿度83%
気圧1011hPa
METARLIRQ 030620Z VRB03KT 9999 FEW020 BKN030 19/16 Q1011
過去の天気等 Google飛行場航空写真 Wunderground天気予報

過去48時間のMETAR

飛行場予報(TAF)
発表時間: 6/03 07:00 CEST (6/03 05:00 UTC)
予報対象時間: 3日8時 CEST ~ 4日8時 CEST
風向・風速不定 3m/s
視程10km以上
全天の4割程度の雲 雲底高度 910m
TAF LIRQ 030500Z 0306/0406 VRB05KT 9999 SCT030